Terminal Aerodrome Forecast
Issued by NWS

Current Version | Previous Version | Text Only | Print | Product List | Glossary Off
Versions: 1 2 3 4 5 6 7 8 9 10 11 12 13 14 15 16

000
FTUS41 KPBZ 180500
TAFMGW
TAF
KMGW 180528Z 1806/1906 12007KT P6SM SCT250
     FM181500 20008KT P6SM SCT080
     FM190000 29007KT P6SM SCT050=

USA.gov is the U.S. government's official web portal to all federal, state and local government web resources and services.